createdAt,value
2023-04-01T06:32:40.380Z,1296.00
2023-04-01T06:33:40.478Z,1320.00
2023-04-01T06:34:40.391Z,1268.00
2023-04-01T06:35:40.529Z,1240.00
2023-04-01T06:36:40.486Z,1416.00
2023-04-01T06:37:40.572Z,1420.00
2023-04-01T06:38:41.554Z,1372.00
2023-04-01T06:39:41.481Z,1288.00
2023-04-01T06:40:41.515Z,1352.00
2023-04-01T06:41:41.441Z,1416.00
2023-04-01T06:42:41.463Z,1416.00
2023-04-01T06:43:42.081Z,1508.00
2023-04-01T06:44:41.492Z,1540.00
2023-04-01T06:45:41.858Z,1492.00
2023-04-01T06:46:41.692Z,1628.00
2023-04-01T06:47:42.509Z,1572.00
2023-04-01T06:48:41.403Z,1584.00
2023-04-01T06:49:41.659Z,1604.00
2023-04-01T06:50:41.434Z,1504.00
2023-04-01T06:51:45.213Z,1460.00
2023-04-01T06:52:42.088Z,1448.00
2023-04-01T06:53:41.371Z,1476.00
2023-04-01T06:54:41.435Z,1480.00
2023-04-01T06:55:41.415Z,1460.00
2023-04-01T06:56:41.370Z,1424.00
2023-04-01T06:57:41.394Z,1404.00
2023-04-01T06:58:41.320Z,1424.00
2023-04-01T06:59:41.293Z,1416.00
2023-04-01T07:00:41.242Z,1444.00
2023-04-01T07:01:41.557Z,1572.00
2023-04-01T07:02:41.263Z,1556.00
2023-04-01T07:03:41.252Z,1504.00
2023-04-01T07:04:41.904Z,1404.00
2023-04-01T07:05:41.331Z,1400.00
2023-04-01T07:06:41.203Z,1428.00
2023-04-01T07:07:41.214Z,1472.00
2023-04-01T07:08:41.650Z,1552.00
2023-04-01T07:09:41.169Z,1616.00
2023-04-01T07:10:44.901Z,1668.00
2023-04-01T07:11:41.161Z,1796.00
2023-04-01T07:12:41.145Z,1900.00
2023-04-01T07:13:41.099Z,2000.00
2023-04-01T07:14:41.287Z,1928.00
2023-04-01T07:15:41.082Z,1832.00
2023-04-01T07:16:41.224Z,1836.00
2023-04-01T07:17:41.797Z,1740.00
2023-04-01T07:18:41.045Z,1620.00
2023-04-01T07:19:41.251Z,1580.00
2023-04-01T07:20:41.033Z,1600.00
2023-04-01T07:21:41.001Z,1772.00
2023-04-01T07:22:40.999Z,1820.00
2023-04-01T07:23:40.980Z,1736.00
2023-04-01T07:24:41.066Z,1756.00
2023-04-01T07:25:40.972Z,1900.00
2023-04-01T07:26:40.979Z,1960.00
2023-04-01T07:27:41.001Z,1936.00
2023-04-01T07:28:41.996Z,2004.00
2023-04-01T07:29:41.195Z,2176.00
2023-04-01T07:30:41.046Z,2124.00
2023-04-01T07:31:41.647Z,2116.00
2023-04-01T07:32:40.953Z,2032.00
2023-04-01T07:33:41.004Z,1984.00
2023-04-01T07:34:40.891Z,2112.00
2023-04-01T07:35:40.945Z,2008.00
2023-04-01T07:36:40.910Z,2056.00
2023-04-01T07:37:40.846Z,2168.00
2023-04-01T07:38:41.054Z,2300.00
2023-04-01T07:39:40.906Z,2292.00
2023-04-01T07:40:41.631Z,2224.00
2023-04-01T07:41:40.850Z,2164.00
2023-04-01T07:42:40.873Z,2060.00
2023-04-01T07:43:40.825Z,2020.00
2023-04-01T07:44:40.928Z,1920.00
2023-04-01T07:45:40.913Z,1936.00
2023-04-01T07:46:40.855Z,2292.00
2023-04-01T07:47:40.792Z,2344.00
2023-04-01T07:48:40.750Z,2400.00
2023-04-01T07:49:40.841Z,2432.00
2023-04-01T07:50:40.756Z,2292.00
2023-04-01T07:51:40.725Z,2452.00
2023-04-01T07:52:40.740Z,2584.00
2023-04-01T07:53:40.717Z,2380.00
2023-04-01T07:54:40.802Z,2268.00
2023-04-01T07:55:40.672Z,2228.00
2023-04-01T07:56:40.681Z,2212.00
2023-04-01T07:57:40.724Z,2320.00
2023-04-01T07:58:40.649Z,2432.00
2023-04-01T07:59:40.675Z,2552.00
2023-04-01T08:00:40.702Z,2636.00
2023-04-01T08:01:40.604Z,2644.00
2023-04-01T08:02:40.810Z,2596.00
2023-04-01T08:03:40.782Z,2708.00
2023-04-01T08:04:40.661Z,2760.00
2023-04-01T08:05:40.590Z,2800.00
2023-04-01T08:06:40.601Z,2908.00
2023-04-01T08:07:40.587Z,3020.00
2023-04-01T08:08:40.625Z,3128.00
2023-04-01T08:09:40.604Z,3308.00
2023-04-01T08:10:40.858Z,3388.00
2023-04-01T08:11:41.852Z,3536.00
2023-04-01T08:12:40.538Z,3564.00
2023-04-01T08:13:40.525Z,3400.00
2023-04-01T08:14:40.512Z,3028.00
2023-04-01T08:15:40.488Z,2892.00
2023-04-01T08:16:40.624Z,2900.00
2023-04-01T08:17:40.485Z,2780.00
2023-04-01T08:18:40.529Z,2632.00
2023-04-01T08:19:40.500Z,2600.00
2023-04-01T08:20:40.461Z,2512.00
2023-04-01T08:21:40.449Z,2440.00
2023-04-01T08:22:40.406Z,2520.00
2023-04-01T08:23:40.393Z,2604.00
2023-04-01T08:24:46.990Z,2740.00
2023-04-01T08:25:42.459Z,3048.00
2023-04-01T08:26:41.393Z,3292.00
2023-04-01T08:27:40.365Z,3436.00
2023-04-01T08:28:40.336Z,3688.00
2023-04-01T08:29:40.310Z,3648.00
2023-04-01T08:30:40.391Z,3420.00
2023-04-01T08:31:40.407Z,3424.00
2023-04-01T08:32:40.342Z,3316.00
2023-04-01T08:33:40.316Z,3004.00
2023-04-01T08:34:40.322Z,3160.00
2023-04-01T08:35:40.644Z,3668.00
2023-04-01T08:36:40.278Z,3976.00
2023-04-01T08:37:40.245Z,4040.00
2023-04-01T08:38:40.457Z,3980.00
2023-04-01T08:39:40.288Z,3872.00
2023-04-01T08:40:40.214Z,3908.00
2023-04-01T08:41:40.246Z,3912.00
2023-04-01T08:42:40.371Z,3752.00
2023-04-01T08:43:40.175Z,3728.00
2023-04-01T08:44:40.294Z,3908.00
2023-04-01T08:45:40.260Z,4056.00
2023-04-01T08:46:40.150Z,3868.00
2023-04-01T08:47:40.188Z,3852.00
2023-04-01T08:48:40.182Z,4284.00
2023-04-01T08:49:40.254Z,4620.00
2023-04-01T08:50:40.145Z,5104.00
2023-04-01T08:51:40.157Z,5660.00
2023-04-01T08:52:40.135Z,6020.00
2023-04-01T08:53:40.156Z,6060.00
2023-04-01T08:54:40.135Z,5776.00
2023-04-01T08:55:40.092Z,5540.00
2023-04-01T08:56:40.121Z,5324.00
2023-04-01T08:57:40.106Z,5036.00
2023-04-01T08:58:40.077Z,4628.00
2023-04-01T08:59:40.031Z,4268.00
2023-04-01T09:00:40.037Z,4468.00
2023-04-01T09:01:40.076Z,4876.00
2023-04-01T09:02:40.082Z,4932.00
2023-04-01T09:03:40.085Z,5200.00
2023-04-01T09:04:40.043Z,5340.00
2023-04-01T09:05:39.959Z,5128.00
2023-04-01T09:06:39.972Z,4716.00
2023-04-01T09:07:39.995Z,4272.00
2023-04-01T09:08:40.055Z,4092.00
2023-04-01T09:09:39.953Z,4148.00
2023-04-01T09:10:39.937Z,4276.00
2023-04-01T09:11:40.041Z,4028.00
2023-04-01T09:12:39.904Z,4128.00
2023-04-01T09:13:39.893Z,4312.00
2023-04-01T09:14:39.918Z,4408.00
2023-04-01T09:15:39.906Z,4096.00
2023-04-01T09:16:39.884Z,4108.00
2023-04-01T09:17:39.991Z,4144.00
2023-04-01T09:18:39.831Z,4120.00
2023-04-01T09:19:39.890Z,4368.00
2023-04-01T09:20:39.869Z,4460.00
2023-04-01T09:21:39.829Z,4280.00
2023-04-01T09:22:39.927Z,4648.00
2023-04-01T09:23:39.814Z,5152.00
2023-04-01T09:24:39.878Z,5256.00
2023-04-01T09:25:39.825Z,5040.00
2023-04-01T09:26:39.814Z,4784.00
2023-04-01T09:27:39.826Z,4764.00
2023-04-01T09:28:39.813Z,4852.00
2023-04-01T09:29:39.811Z,4868.00
2023-04-01T09:30:39.780Z,4828.00
2023-04-01T09:31:39.761Z,4768.00
2023-04-01T09:32:39.728Z,4724.00
2023-04-01T09:33:39.730Z,4992.00
2023-04-01T09:34:39.723Z,5436.00
2023-04-01T09:35:39.812Z,5612.00
2023-04-01T09:36:39.654Z,5652.00
2023-04-01T09:37:39.689Z,5624.00
2023-04-01T09:38:39.698Z,5488.00
2023-04-01T09:39:39.716Z,5272.00
2023-04-01T09:40:40.553Z,5352.00
2023-04-01T09:41:39.621Z,5672.00
2023-04-01T09:42:39.796Z,5908.00
2023-04-01T09:43:39.599Z,6152.00
2023-04-01T09:44:40.440Z,6516.00
2023-04-01T09:45:39.709Z,6508.00
2023-04-01T09:46:39.633Z,6376.00
2023-04-01T09:47:39.647Z,6164.00
2023-04-01T09:48:39.589Z,5852.00
2023-04-01T09:49:39.595Z,5568.00
2023-04-01T09:50:39.574Z,5452.00
2023-04-01T09:51:39.566Z,5316.00
2023-04-01T09:52:39.619Z,5136.00
2023-04-01T09:53:39.503Z,4932.00
2023-04-01T09:54:39.538Z,4604.00
2023-04-01T09:55:39.479Z,4480.00
2023-04-01T09:56:39.534Z,4464.00
2023-04-01T09:57:39.566Z,4220.00
2023-04-01T09:58:43.389Z,4176.00
2023-04-01T09:59:39.547Z,4140.00
2023-04-01T10:00:39.458Z,4120.00
2023-04-01T10:01:39.537Z,4320.00
2023-04-01T10:02:39.423Z,4612.00
2023-04-01T10:03:39.429Z,4288.00
2023-04-01T10:04:39.532Z,4248.00
2023-04-01T10:05:39.548Z,4596.00
2023-04-01T10:06:39.426Z,4908.00
2023-04-01T10:07:39.382Z,4964.00
2023-04-01T10:08:39.427Z,4852.00
2023-04-01T10:09:39.361Z,5020.00
2023-04-01T10:10:39.467Z,5232.00
2023-04-01T10:11:39.375Z,5488.00
2023-04-01T10:12:39.327Z,5944.00
2023-04-01T10:13:39.308Z,6244.00
2023-04-01T10:14:39.416Z,6200.00
2023-04-01T10:15:39.446Z,6088.00
2023-04-01T10:16:39.467Z,6172.00
2023-04-01T10:17:39.429Z,6212.00
2023-04-01T10:18:39.305Z,6212.00
2023-04-01T10:19:39.305Z,6388.00
2023-04-01T10:20:39.337Z,7148.00
2023-04-01T10:21:39.262Z,7996.00
2023-04-01T10:22:39.246Z,8508.00
2023-04-01T10:23:39.206Z,8904.00
2023-04-01T10:24:39.279Z,8944.00
2023-04-01T10:25:39.263Z,8668.00
2023-04-01T10:26:40.160Z,8540.00
2023-04-01T10:27:39.260Z,8628.00
2023-04-01T10:28:39.231Z,8312.00
2023-04-01T10:29:39.167Z,7896.00
2023-04-01T10:30:39.175Z,8060.00
2023-04-01T10:31:39.322Z,8380.00
2023-04-01T10:32:39.183Z,8932.00
2023-04-01T10:33:39.152Z,9012.00
2023-04-01T10:34:39.114Z,9108.00
2023-04-01T10:35:39.196Z,9180.00
2023-04-01T10:36:39.123Z,8636.00
2023-04-01T10:37:39.194Z,8100.00
2023-04-01T10:38:39.271Z,7684.00
2023-04-01T10:42:44.599Z,7832.00
2023-04-01T10:43:32.838Z,7760.00
2023-04-01T10:44:32.870Z,8024.00
2023-04-01T10:45:33.222Z,8480.00
2023-04-01T10:46:32.960Z,8520.00
2023-04-01T10:47:32.863Z,8444.00
2023-04-01T10:48:32.760Z,8504.00
2023-04-01T10:49:32.738Z,8556.00
2023-04-01T10:50:32.756Z,8472.00
2023-04-01T10:51:32.738Z,8256.00
2023-04-01T10:52:32.758Z,7900.00
2023-04-01T10:53:32.721Z,7868.00
2023-04-01T10:54:32.684Z,7912.00
2023-04-01T10:55:33.123Z,7820.00
2023-04-01T10:56:32.664Z,7936.00
2023-04-01T10:57:32.747Z,8024.00
2023-04-01T10:58:33.822Z,8304.00
2023-04-01T10:59:34.696Z,8596.00
2023-04-01T11:00:33.973Z,8808.00
2023-04-01T11:01:33.841Z,8596.00
2023-04-01T11:02:33.878Z,8236.00
2023-04-01T11:03:33.922Z,7788.00
2023-04-01T11:04:33.857Z,7448.00
2023-04-01T11:05:34.022Z,7024.00
2023-04-01T11:06:33.774Z,6592.00
2023-04-01T11:07:33.839Z,5948.00
2023-04-01T11:08:33.732Z,5584.00
2023-04-01T11:09:33.679Z,5776.00
2023-04-01T11:10:34.657Z,5724.00
2023-04-01T11:11:33.742Z,5528.00
2023-04-01T11:12:33.709Z,5000.00
2023-04-01T11:13:33.690Z,4696.00
2023-04-01T11:14:33.632Z,4516.00
2023-04-01T11:15:33.966Z,4760.00
2023-04-01T11:16:33.774Z,4824.00
2023-04-01T11:17:34.182Z,4576.00
2023-04-01T11:18:33.609Z,4364.00
2023-04-01T11:19:33.588Z,4192.00
2023-04-01T11:20:33.696Z,4060.00
2023-04-01T11:21:33.666Z,3928.00
2023-04-01T11:22:33.605Z,3816.00
2023-04-01T11:23:33.688Z,3748.00
2023-04-01T11:24:33.799Z,3912.00
2023-04-01T11:25:33.846Z,4108.00
2023-04-01T11:26:33.602Z,4224.00
2023-04-01T11:27:33.599Z,4184.00
2023-04-01T11:28:33.660Z,4048.00
2023-04-01T11:29:33.556Z,4060.00
2023-04-01T11:30:33.541Z,4160.00
2023-04-01T11:31:34.085Z,4200.00
2023-04-01T11:32:33.516Z,4272.00
2023-04-01T11:33:33.480Z,4396.00
2023-04-01T11:34:33.537Z,4360.00
2023-04-01T11:35:33.613Z,4244.00
2023-04-01T11:36:33.534Z,4288.00
2023-04-01T11:37:33.392Z,4320.00
2023-04-01T11:38:33.428Z,4268.00
2023-04-01T11:39:33.436Z,3944.00
2023-04-01T11:40:33.466Z,3584.00
2023-04-01T11:41:34.500Z,3516.00
2023-04-01T11:42:33.371Z,3380.00
2023-04-01T11:43:34.083Z,3192.00
2023-04-01T11:44:34.713Z,3208.00
2023-04-01T11:45:33.528Z,3468.00
2023-04-01T11:46:33.426Z,4216.00
2023-04-01T11:47:33.384Z,4936.00
2023-04-01T11:48:33.309Z,5360.00
2023-04-01T11:49:33.405Z,5556.00
2023-04-01T11:50:33.344Z,5576.00
2023-04-01T11:51:33.380Z,5488.00
2023-04-01T11:52:33.316Z,5392.00
2023-04-01T11:53:33.255Z,5092.00
2023-04-01T11:54:33.324Z,4732.00
2023-04-01T11:55:33.387Z,4356.00
2023-04-01T11:56:33.258Z,4252.00
2023-04-01T11:57:33.353Z,4388.00
2023-04-01T11:58:33.264Z,4532.00
2023-04-01T11:59:33.208Z,4576.00
2023-04-01T12:00:33.788Z,4724.00
2023-04-01T12:01:33.158Z,4740.00
2023-04-01T12:02:33.242Z,4540.00
2023-04-01T12:03:34.307Z,4076.00
2023-04-01T12:04:33.253Z,3640.00
2023-04-01T12:05:33.442Z,3576.00
2023-04-01T12:06:33.145Z,3556.00
2023-04-01T12:07:33.121Z,3392.00
2023-04-01T12:08:33.207Z,3172.00
2023-04-01T12:09:33.161Z,2980.00
2023-04-01T12:10:34.836Z,3040.00
2023-04-01T12:11:33.098Z,3016.00
2023-04-01T12:12:33.136Z,2916.00
2023-04-01T12:13:33.060Z,2788.00
2023-04-01T12:14:33.039Z,2712.00
2023-04-01T12:15:33.229Z,2744.00
2023-04-01T12:16:33.144Z,2852.00
2023-04-01T12:17:33.783Z,2924.00
2023-04-01T12:18:32.989Z,3024.00
2023-04-01T12:19:32.994Z,3276.00
2023-04-01T12:20:32.994Z,3688.00
2023-04-01T12:21:32.970Z,3888.00
2023-04-01T12:22:33.944Z,3968.00
2023-04-01T12:23:33.984Z,3944.00
2023-04-01T12:24:32.964Z,3896.00
2023-04-01T12:25:33.047Z,3860.00
2023-04-01T12:26:33.034Z,3808.00
2023-04-01T12:27:32.916Z,3744.00
2023-04-01T12:28:32.902Z,3692.00
2023-04-01T12:29:32.886Z,3660.00
2023-04-01T12:30:32.954Z,3648.00
2023-04-01T12:31:32.969Z,3656.00
2023-04-01T12:32:32.929Z,3652.00
2023-04-01T12:33:32.896Z,3656.00
2023-04-01T12:34:32.855Z,3672.00
2023-04-01T12:35:33.260Z,3712.00
2023-04-01T12:36:32.830Z,3760.00
2023-04-01T12:37:32.823Z,3788.00
2023-04-01T12:38:32.857Z,3812.00
2023-04-01T12:39:32.800Z,3804.00
2023-04-01T12:40:34.131Z,3796.00
2023-04-01T12:41:32.862Z,3836.00
2023-04-01T12:42:32.941Z,3932.00
2023-04-01T12:43:32.805Z,4064.00
2023-04-01T12:44:32.768Z,4200.00
2023-04-01T12:45:33.040Z,4268.00
2023-04-01T12:46:32.817Z,4240.00
2023-04-01T12:47:32.748Z,4172.00
2023-04-01T12:48:32.720Z,4084.00
2023-04-01T12:49:32.817Z,4000.00
2023-04-01T12:50:32.705Z,3896.00
2023-04-01T12:51:32.680Z,3716.00
2023-04-01T12:52:32.726Z,3508.00
2023-04-01T12:53:32.654Z,3288.00
2023-04-01T12:54:32.660Z,3060.00
2023-04-01T12:55:32.804Z,2844.00
2023-04-01T12:56:32.684Z,2664.00
2023-04-01T12:57:32.724Z,2532.00
2023-04-01T12:58:32.650Z,2448.00
2023-04-01T12:59:32.641Z,2428.00
2023-04-01T13:00:32.599Z,2448.00
2023-04-01T13:01:32.652Z,2508.00
2023-04-01T13:02:32.614Z,2560.00
2023-04-01T13:03:33.348Z,2604.00
2023-04-01T13:04:32.550Z,2648.00
2023-04-01T13:05:32.768Z,2684.00
2023-04-01T13:06:32.579Z,2728.00
2023-04-01T13:07:32.524Z,2780.00
2023-04-01T13:08:32.521Z,2864.00
2023-04-01T13:09:32.533Z,2928.00
2023-04-01T13:10:32.677Z,2964.00
2023-04-01T13:11:32.521Z,3004.00
2023-04-01T13:12:32.507Z,3016.00
2023-04-01T13:13:32.464Z,3080.00
2023-04-01T13:14:32.522Z,3160.00
2023-04-01T13:15:32.530Z,3332.00
2023-04-01T13:16:32.441Z,3488.00
2023-04-01T13:17:32.474Z,3536.00
2023-04-01T13:18:32.399Z,3572.00
2023-04-01T13:19:32.501Z,3660.00
2023-04-01T13:20:32.709Z,3780.00
2023-04-01T13:21:33.483Z,3868.00
2023-04-01T13:22:32.373Z,3980.00
2023-04-01T13:23:32.384Z,4056.00
2023-04-01T13:24:32.363Z,4060.00
2023-04-01T13:25:32.380Z,3972.00
2023-04-01T13:26:32.413Z,3772.00
2023-04-01T13:27:32.329Z,3464.00
2023-04-01T13:28:32.426Z,3280.00
2023-04-01T13:29:32.352Z,3124.00
2023-04-01T13:30:32.769Z,3004.00
2023-04-01T13:31:32.484Z,2956.00
2023-04-01T13:32:43.469Z,3076.00
2023-04-01T13:33:34.294Z,3332.00
2023-04-01T13:34:32.295Z,3544.00
2023-04-01T13:35:32.322Z,3376.00
2023-04-01T13:36:32.278Z,3052.00
2023-04-01T13:37:33.792Z,2992.00
2023-04-01T13:38:32.723Z,3224.00
2023-04-01T13:39:32.231Z,3560.00
2023-04-01T13:40:32.487Z,3912.00
2023-04-01T13:41:32.296Z,4088.00
2023-04-01T13:42:32.203Z,4252.00
2023-04-01T13:43:32.206Z,4456.00
2023-04-01T13:44:32.163Z,4504.00
2023-04-01T13:45:32.755Z,4484.00
2023-04-01T13:46:32.295Z,4496.00
2023-04-01T13:47:32.828Z,4608.00
2023-04-01T13:48:32.182Z,4808.00
2023-04-01T13:49:32.137Z,4952.00
2023-04-01T13:50:32.403Z,4840.00
2023-04-01T13:51:32.124Z,4636.00
2023-04-01T13:52:32.144Z,4516.00
2023-04-01T13:53:32.068Z,4464.00
2023-04-01T13:54:32.760Z,4136.00
2023-04-01T13:55:32.046Z,4084.00
2023-04-01T13:56:32.105Z,4296.00
2023-04-01T13:57:32.143Z,4288.00
2023-04-01T13:58:32.075Z,4064.00
2023-04-01T13:59:32.024Z,3588.00
2023-04-01T14:00:32.210Z,3232.00
2023-04-01T14:01:32.111Z,3032.00
2023-04-01T14:02:32.008Z,3116.00
2023-04-01T14:45:28.303Z,4376.00
2023-04-01T14:46:29.484Z,4276.00
2023-04-01T14:47:29.586Z,4248.00
2023-04-01T14:48:30.473Z,4248.00
2023-04-01T14:49:29.497Z,4280.00
2023-04-01T14:50:29.371Z,4292.00
2023-04-01T14:51:29.496Z,4340.00
2023-04-01T14:52:29.631Z,4372.00
2023-04-01T14:53:29.513Z,4420.00
2023-04-01T14:54:29.296Z,4548.00
2023-04-01T14:55:30.127Z,4512.00
2023-04-01T14:56:31.480Z,4216.00
2023-04-01T14:57:30.078Z,4012.00
2023-04-01T14:58:29.392Z,4544.00
2023-04-01T14:59:29.792Z,5044.00
2023-04-01T15:00:30.658Z,4772.00
2023-04-01T15:01:29.463Z,4452.00
2023-04-01T15:02:29.345Z,4512.00
2023-04-01T15:03:29.252Z,4304.00
2023-04-01T15:04:29.456Z,4000.00
2023-04-01T15:05:29.221Z,3716.00
2023-04-01T15:06:29.206Z,3832.00
2023-04-01T15:07:29.380Z,3768.00
2023-04-01T15:08:29.297Z,3636.00
2023-04-01T15:09:29.176Z,3420.00
2023-04-01T15:10:29.143Z,3220.00
2023-04-01T15:11:29.418Z,3196.00
2023-04-01T15:12:29.118Z,3364.00
2023-04-01T15:13:29.538Z,3368.00
2023-04-01T15:14:30.113Z,3276.00
2023-04-01T15:15:29.095Z,3164.00
2023-04-01T15:16:30.121Z,3076.00
2023-04-01T15:17:29.130Z,3060.00
2023-04-01T15:18:29.312Z,3016.00
2023-04-01T15:19:29.052Z,2904.00
2023-04-01T15:20:29.107Z,2912.00
2023-04-01T15:21:29.650Z,2968.00
2023-04-01T15:22:29.096Z,3128.00
2023-04-01T15:23:29.767Z,3272.00
2023-04-01T15:24:29.170Z,3320.00
2023-04-01T15:25:29.144Z,3324.00
2023-04-01T15:26:29.267Z,3292.00
2023-04-01T15:27:28.961Z,3224.00
2023-04-01T15:28:28.996Z,3176.00
2023-04-01T15:29:29.201Z,3108.00
2023-04-01T15:30:28.954Z,3020.00
2023-04-01T15:31:29.049Z,2920.00
2023-04-01T15:32:29.979Z,2788.00
2023-04-01T15:33:28.874Z,2668.00
2023-04-01T15:34:29.029Z,2564.00
2023-04-01T15:35:28.926Z,2480.00
2023-04-01T15:36:28.953Z,2452.00
2023-04-01T15:37:29.083Z,2460.00
2023-04-01T15:38:28.895Z,2460.00
2023-04-01T15:39:29.050Z,2412.00
2023-04-01T15:40:28.984Z,2324.00
2023-04-01T15:41:28.979Z,2212.00
2023-04-01T15:42:28.878Z,2120.00
2023-04-01T15:43:28.961Z,2096.00
2023-04-01T15:44:29.692Z,2060.00
2023-04-01T15:45:28.864Z,1980.00
2023-04-01T15:46:28.894Z,1904.00
2023-04-01T15:47:28.870Z,1848.00
2023-04-01T15:48:28.866Z,1804.00
2023-04-01T15:49:28.866Z,1792.00
2023-04-01T15:50:28.962Z,1792.00
2023-04-01T15:51:29.243Z,1772.00
2023-04-01T15:52:28.841Z,1752.00
2023-04-01T15:53:28.912Z,1740.00
2023-04-01T15:54:28.735Z,1684.00
2023-04-01T15:55:28.768Z,1608.00
2023-04-01T15:56:28.983Z,1536.00
2023-04-01T15:57:29.033Z,1464.00
2023-04-01T15:58:28.792Z,1420.00
2023-04-01T15:59:28.733Z,1372.00
2023-04-01T16:00:28.935Z,1324.00
2023-04-01T16:01:28.920Z,1276.00
2023-04-01T16:02:30.691Z,1248.00
2023-04-01T16:03:28.776Z,1204.00
2023-04-01T16:04:28.684Z,1156.00
2023-04-01T16:05:28.598Z,1112.00
2023-04-01T16:06:28.682Z,1068.00
2023-04-01T16:07:28.659Z,1036.00
2023-04-01T16:08:28.564Z,1008.00
2023-04-01T16:09:28.737Z,984.00
2023-04-01T16:10:28.696Z,948.00
2023-04-01T16:11:28.568Z,928.00
2023-04-01T16:12:28.877Z,908.00
2023-04-01T16:13:28.698Z,888.00
2023-04-01T16:14:28.589Z,856.00
2023-04-01T16:15:28.551Z,816.00
2023-04-01T16:16:28.756Z,800.00
2023-04-01T16:17:28.675Z,784.00
2023-04-01T16:18:28.460Z,764.00
2023-04-01T16:19:28.626Z,736.00
2023-04-01T16:20:28.409Z,716.00
2023-04-01T16:21:28.460Z,692.00
2023-04-01T16:22:28.452Z,680.00
2023-04-01T16:23:28.414Z,668.00
2023-04-01T16:24:28.380Z,668.00
2023-04-01T16:25:28.378Z,660.00
2023-04-01T16:26:28.370Z,652.00
2023-04-01T16:27:28.358Z,652.00
2023-04-01T16:28:29.079Z,668.00
2023-04-01T16:29:28.360Z,680.00
2023-04-01T16:30:28.297Z,696.00
2023-04-01T16:31:28.316Z,716.00
2023-04-01T16:32:28.300Z,736.00
2023-04-01T16:33:28.287Z,752.00
2023-04-01T16:34:28.274Z,768.00
2023-04-01T16:35:28.323Z,780.00
2023-04-01T16:36:28.318Z,784.00
2023-04-01T16:37:28.279Z,784.00
2023-04-01T16:38:28.254Z,776.00
2023-04-01T16:39:28.406Z,760.00
2023-04-01T16:40:28.287Z,740.00
2023-04-01T16:41:28.252Z,716.00
2023-04-01T16:42:29.112Z,692.00
2023-04-01T16:43:28.297Z,680.00
2023-04-01T16:44:28.224Z,668.00
2023-04-01T16:45:28.239Z,660.00
2023-04-01T16:46:28.247Z,636.00
2023-04-01T16:47:28.264Z,608.00
2023-04-01T16:48:28.206Z,580.00
2023-04-01T16:49:29.073Z,556.00
2023-04-01T16:50:28.613Z,544.00
2023-04-01T16:51:28.158Z,556.00
2023-04-01T16:52:28.171Z,576.00
2023-04-01T16:53:28.068Z,596.00
2023-04-01T16:54:28.104Z,612.00
2023-04-01T16:55:28.085Z,628.00
2023-04-01T16:56:28.120Z,640.00
2023-04-01T16:57:28.187Z,644.00
2023-04-01T16:58:28.181Z,640.00
2023-04-01T16:59:28.351Z,628.00
2023-04-01T17:00:28.073Z,612.00
2023-04-01T17:01:28.127Z,592.00
2023-04-01T17:02:28.176Z,560.00
2023-04-01T17:03:28.018Z,524.00
2023-04-01T17:04:28.040Z,488.00
2023-04-01T17:05:28.977Z,452.00
2023-04-01T17:06:29.399Z,420.00
2023-04-01T17:07:28.021Z,380.00
2023-04-01T17:08:28.115Z,344.00
2023-04-01T17:09:27.964Z,320.00
2023-04-01T17:10:28.051Z,296.00
2023-04-01T17:11:27.990Z,264.00
2023-04-01T17:12:28.003Z,232.00
2023-04-01T17:13:27.892Z,208.00
2023-04-01T17:14:27.933Z,196.00
2023-04-01T17:15:27.914Z,196.00
2023-04-01T17:16:27.963Z,200.00
2023-04-01T17:17:28.071Z,196.00
2023-04-01T17:18:27.903Z,188.00
2023-04-01T17:19:27.871Z,180.00
2023-04-01T17:20:27.845Z,164.00
2023-04-01T17:21:27.906Z,152.00
2023-04-01T17:22:28.660Z,144.00
2023-04-01T17:23:27.935Z,136.00
2023-04-01T17:24:28.439Z,124.00
2023-04-01T17:25:27.812Z,120.00
2023-04-01T17:26:27.742Z,120.00
2023-04-01T17:27:27.821Z,132.00
2023-04-01T17:28:27.917Z,140.00
2023-04-01T17:29:27.824Z,140.00
2023-04-01T17:30:27.801Z,132.00
2023-04-01T17:31:27.870Z,132.00
2023-04-01T17:32:27.794Z,136.00
2023-04-01T17:33:27.747Z,136.00
2023-04-01T17:34:27.742Z,136.00
2023-04-01T17:35:27.731Z,128.00
2023-04-01T17:36:28.636Z,120.00
2023-04-01T17:37:27.711Z,116.00
2023-04-01T17:38:27.764Z,104.00
2023-04-01T17:39:27.677Z,100.00
2023-04-01T17:40:27.686Z,96.00
2023-04-01T17:41:27.748Z,88.00
2023-04-01T17:42:27.680Z,80.00
2023-04-01T17:43:27.698Z,76.00
2023-04-01T17:44:27.597Z,68.00
2023-04-01T17:45:27.729Z,60.00
2023-04-01T17:46:27.663Z,52.00
2023-04-01T17:47:27.644Z,48.00
2023-04-01T17:48:27.584Z,40.00
2023-04-01T17:49:27.557Z,40.00
2023-04-01T17:50:27.647Z,36.00
2023-04-01T17:51:27.583Z,36.00
2023-04-01T17:52:27.670Z,32.00
2023-04-01T17:53:27.534Z,32.00
2023-04-01T17:54:27.533Z,32.00
2023-04-01T17:55:27.491Z,28.00
2023-04-01T17:56:27.491Z,24.00
2023-04-01T17:57:27.543Z,24.00
2023-04-01T17:58:27.502Z,24.00
2023-04-01T17:59:27.517Z,24.00
2023-04-01T18:00:30.139Z,16.00
2023-04-01T18:01:28.552Z,16.00
2023-04-01T18:02:27.620Z,16.00
2023-04-01T18:03:27.509Z,12.00
2023-04-01T18:04:28.153Z,12.00
2023-04-01T18:05:27.461Z,8.00
2023-04-01T18:06:27.401Z,8.00
2023-04-01T18:07:27.477Z,8.00
2023-04-01T18:08:27.424Z,4.00
2023-04-01T18:09:27.406Z,4.00
2023-04-01T18:10:27.397Z,8.00
2023-04-01T18:11:27.543Z,4.00
2023-04-01T18:12:27.406Z,4.00
2023-04-01T18:13:27.439Z,4.00
2023-04-01T18:14:27.359Z,4.00
2023-04-01T18:15:27.348Z,0.00
2023-04-01T18:16:27.433Z,4.00
2023-04-01T18:17:27.515Z,4.00
2023-04-01T18:18:27.454Z,0.00
2023-04-01T18:19:29.887Z,0.00
2023-04-01T18:20:28.192Z,0.00
2023-04-01T18:21:28.236Z,0.00
2023-04-01T18:27:23.224Z,0.00
2023-04-01T18:28:32.372Z,0.00
2023-04-01T18:29:24.900Z,0.00
2023-04-01T18:30:24.822Z,0.00
2023-04-01T18:33:49.712Z,0.00
2023-04-01T18:38:30.462Z,0.00
2023-04-01T18:39:42.005Z,0.00
2023-04-01T18:41:59.241Z,0.00
2023-04-01T18:43:05.623Z,0.00
2023-04-01T18:44:09.165Z,0.00
2023-04-01T18:46:30.380Z,0.00
2023-04-01T18:47:45.056Z,0.00
2023-04-01T18:48:41.469Z,0.00
2023-04-01T18:49:40.570Z,0.00
2023-04-01T18:52:26.594Z,0.00
2023-04-01T18:53:35.634Z,0.00
2023-04-01T18:54:35.768Z,0.00
2023-04-01T18:55:40.976Z,0.00
2023-04-01T18:58:00.844Z,0.00
2023-04-01T19:03:12.986Z,0.00
2023-04-01T19:07:22.129Z,0.00
2023-04-01T19:12:52.316Z,0.00
2023-04-01T19:16:31.898Z,0.00
2023-04-01T19:19:51.441Z,0.00
2023-04-01T19:22:53.261Z,0.00
2023-04-01T19:25:20.212Z,0.00
2023-04-01T19:28:21.911Z,0.00
2023-04-01T19:30:48.568Z,0.00
2023-04-01T19:31:58.494Z,0.00
2023-04-01T19:32:58.856Z,0.00
2023-04-01T19:33:48.569Z,0.00
2023-04-01T19:34:48.839Z,0.00
2023-04-01T19:35:57.389Z,0.00
2023-04-01T19:36:57.213Z,0.00
2023-04-01T19:39:41.345Z,0.00
2023-04-01T19:40:49.157Z,0.00
2023-04-01T19:41:41.683Z,0.00
2023-04-01T19:42:41.586Z,0.00
2023-04-01T19:48:38.795Z,0.00
2023-04-01T19:51:12.421Z,0.00
2023-04-01T19:52:27.690Z,0.00
2023-04-01T19:53:12.976Z,0.00
2023-04-01T19:56:29.162Z,0.00
2023-04-01T19:58:53.611Z,0.00
2023-04-01T20:06:05.809Z,0.00
2023-04-01T20:11:32.098Z,0.00
2023-04-01T20:13:02.374Z,0.00
2023-04-01T20:15:41.295Z,0.00
2023-04-01T20:18:20.546Z,0.00
2023-04-01T20:21:24.051Z,0.00
2023-04-01T20:24:03.703Z,0.00
2023-04-01T20:26:43.459Z,0.00
2023-04-01T20:27:51.581Z,0.00
2023-04-01T20:31:40.177Z,0.00
2023-04-01T20:34:38.662Z,0.00
2023-04-01T20:38:48.537Z,0.00
2023-04-01T20:40:03.742Z,0.00
2023-04-01T20:41:50.892Z,0.00
2023-04-01T20:42:02.689Z,0.00
2023-04-01T20:43:17.575Z,0.00
2023-04-01T20:48:44.295Z,0.00
2023-04-01T20:54:34.633Z,0.00
2023-04-01T20:57:24.162Z,0.00
2023-04-01T21:03:04.866Z,0.00
2023-04-01T21:10:54.976Z,0.00
2023-04-01T21:14:15.648Z,0.00
2023-04-01T21:18:25.454Z,0.00
2023-04-01T21:22:25.007Z,0.00
2023-04-01T21:34:46.949Z,0.00
2023-04-01T21:37:59.107Z,0.00
2023-04-01T21:43:02.946Z,0.00
2023-04-01T21:46:25.371Z,0.00
2023-04-01T21:47:38.507Z,0.00
2023-04-01T21:48:38.912Z,0.00